Terminal Aerodrome Forecast
Issued by NWS

Home | Current Version | Previous Version | Text Only | Print | Product List | Glossary On
Versions: 1 2 3 4 5 6 7 8 9 10 11 12 13 14 15 16 17 18 19 20 21 22 23 24
000
FTUS43 KAPX 271725
TAFAPN
TAF
KAPN 271725Z 2718/2818 24010G20KT P6SM SCT025 BKN040
     FM272200 28010G15KT P6SM OVC025
     FM280600 28005KT P6SM BKN070
     FM281400 10010KT 5SM BR BKN010=

USA.gov is the U.S. government's official web portal to all federal, state and local government web resources and services.